Lima, OH (45807)

8:01 AM EDT on August 31, 2014 (GMT -0400)
West side Lima OH | Change Station
CLOSE
Current Station
Personal Weather Station
Location: Lima, OH
Elevation: 870 ft
Nearby Weather Stations

Elev 870 ft 40.75 °N, 84.13 °W | Updated 5 minutes ago

Mostly Cloudy
Mostly Cloudy
68.2 °F
Feels Like 68.2 °F
N
0.0
Wind Variable Wind from SW
Gusts 7.0 mph

Today
High -- | Low -- °F
--% Chance of Precip.
Yesterday
High -- | Low -- °F
Precip. -- in
7:02 AM 8:10 PM
Waxing Crescent, 30% visible
Pressure 29.99 in
Visibility 10.0 miles
Clouds Mostly Cloudy 1700 ft
Mostly Cloudy 3300 ft
Dew Point 64 °F
Humidity 88%
Rainfall 0.00 in
Snow Depth Not available.
UV 0 out of 12
Pollen 5.20 out of 12
Air Quality Not available.
Flu Activity Not available.
METAR KAOH 311153Z AUTO 18004KT 10SM BKN017 BKN033 22/19 A3001 RMK AO2 SLP156 T02170194 10233 20217 53007

More Conditions Fewer Conditions

Pressure 29.99 in
Visibility 10.0 miles
Clouds Mostly Cloudy 1700 ft
Mostly Cloudy 3300 ft
Dew Point 64 °F
Humidity 88%
Rainfall 0.00 in
Snow Depth Not available.
UV 0 out of 12
Pollen 5.20 out of 12
Air Quality Not available.
Flu Activity Not available.
METAR KAOH 311153Z AUTO 18004KT 10SM BKN017 BKN033 22/19 A3001 RMK AO2 SLP156 T02170194 10233 20217 53007

More Conditions Fewer Conditions

10-Day Weather Forecast

Almanac

Astronomy

Aug. 31, 2014 Rise Set
Actual Time 7:02 AM EDT 8:10 PM EDT
Civil Twilight 6:34 AM EDT 8:38 PM EDT
Nautical Twilight 6:00 AM EDT 9:12 PM EDT
Astronomical Twilight 5:25 AM EDT 9:47 PM EDT
Moon 12:50 PM EDT 11:22 PM EDT
Length of Visible Light 14h 04m
Length of Day
13h 07m
Tomorrow will be 2m 36s shorter.
Waxing Crescent, 30% of the Moon is Illuminated
Today
Waxing Crescent
Sep 2
First Quarter
Sep 8
Full
Sep 15
Last Quarter
Sep 24
New

Today's Extremes

State Highs State Lows

Community

WunderPhotos

Upload Photos

1,748,853 photos uploaded!

Nearby

Snow Depth

Station Depth Elevation
No new snow has been reported.

Earthquake Activity

City Distance Mag. Time & Date
No recent earthquake activity has been reported nearby.
Minimum magnitude displayed is 2.5.

Coastal Water Temperatures

Place Temperature
No Stations Reporting

Nearby Weather Stations